Time;durP1;ratioP1;P1;durP2;ratioP2;P2;SDS_P1;SDS_P2;PMS_P1;PMS_P2;Temp;Humidity;BMP_temperature;BMP_pressure;BME280_temperature;BME280_humidity;BME280_pressure;Samples;Min_cycle;Max_cycle;Signal;HPM_P1;HPM_P2
2022/06/30 00:00:23;;;;;;;3.50;0.90;;;14.70;99.90;;;;;;5091744;28;20554;-58
2022/06/30 00:02:51;;;;;;;3.13;0.90;;;14.70;99.90;;;;;;5091115;28;20044;-57
2022/06/30 00:05:18;;;;;;;7.82;1.85;;;14.60;99.90;;;;;;5091146;28;20044;-58
2022/06/30 00:07:46;;;;;;;4.47;1.30;;;14.60;99.90;;;;;;5095875;28;20419;-58
2022/06/30 00:10:14;;;;;;;3.28;0.70;;;14.60;99.90;;;;;;5091095;28;20048;-57
2022/06/30 00:12:42;;;;;;;4.72;1.05;;;14.60;99.90;;;;;;5090817;28;20523;-59
2022/06/30 00:15:10;;;;;;;6.65;1.10;;;14.60;99.90;;;;;;5091434;28;20126;-59
2022/06/30 00:17:37;;;;;;;4.43;0.70;;;14.50;99.90;;;;;;5093093;28;20047;-59
2022/06/30 00:20:05;;;;;;;1.45;0.75;;;14.50;99.90;;;;;;5089596;28;20048;-57
2022/06/30 00:22:33;;;;;;;2.63;1.38;;;14.50;99.90;;;;;;5092241;28;20051;-59
2022/06/30 00:25:01;;;;;;;3.22;1.48;;;14.40;99.90;;;;;;5111603;28;20039;-58
2022/06/30 00:27:28;;;;;;;3.95;1.08;;;14.40;99.90;;;;;;5110672;28;20482;-58
2022/06/30 00:29:56;;;;;;;3.63;1.05;;;14.30;99.90;;;;;;5091334;28;20044;-58
2022/06/30 00:32:24;;;;;;;2.22;0.90;;;14.20;99.90;;;;;;5090889;28;20522;-59
2022/06/30 00:34:51;;;;;;;3.03;1.00;;;14.20;99.90;;;;;;5091057;28;20044;-58
2022/06/30 00:37:19;;;;;;;4.70;1.60;;;14.10;99.90;;;;;;5095142;28;20050;-57
2022/06/30 00:39:46;;;;;;;6.40;1.10;;;14.00;99.90;;;;;;5110981;28;20039;-58
2022/06/30 00:42:14;;;;;;;3.15;0.82;;;13.90;99.90;;;;;;5110396;28;20058;-58
2022/06/30 00:44:42;;;;;;;2.28;0.88;;;13.90;99.90;;;;;;5110435;28;20051;-57
2022/06/30 00:47:10;;;;;;;2.53;0.88;;;13.90;99.90;;;;;;5095334;28;20055;-57
2022/06/30 00:49:38;;;;;;;1.67;0.70;;;13.90;99.90;;;;;;5090750;28;20403;-57
2022/06/30 00:52:10;;;;;;;3.85;0.95;;;13.80;99.90;;;;;;5108682;28;20475;-57
2022/06/30 00:54:39;;;;;;;3.00;1.23;;;13.80;99.90;;;;;;5109533;28;20055;-56
2022/06/30 00:57:10;;;;;;;4.70;1.08;;;13.80;99.90;;;;;;5110219;28;20047;-58
2022/06/30 00:59:40;;;;;;;6.78;1.30;;;13.70;99.90;;;;;;5110575;28;20035;-57
2022/06/30 01:02:08;;;;;;;3.60;1.20;;;13.80;99.90;;;;;;5104813;28;20062;-55
2022/06/30 01:04:38;;;;;;;5.85;2.60;;;13.80;99.90;;;;;;5089275;28;20048;-56
2022/06/30 01:07:06;;;;;;;5.10;1.10;;;13.80;99.90;;;;;;5090959;28;20043;-56
2022/06/30 01:15:07;;;;;;;3.47;0.95;;;13.80;99.90;;;;;;5090025;28;20055;-55
2022/06/30 01:17:34;;;;;;;2.35;1.10;;;13.80;99.90;;;;;;5089454;28;20039;-57
2022/06/30 01:20:03;;;;;;;6.57;1.27;;;13.80;99.90;;;;;;5090070;28;20044;-57
2022/06/30 01:22:30;;;;;;;4.22;1.15;;;13.80;99.90;;;;;;5092689;28;20044;-56
2022/06/30 01:24:58;;;;;;;6.57;1.20;;;13.80;99.90;;;;;;5093183;28;20048;-56
2022/06/30 01:27:26;;;;;;;3.40;1.00;;;13.70;99.90;;;;;;5089802;28;20055;-56
2022/06/30 01:29:53;;;;;;;5.03;1.65;;;13.70;99.90;;;;;;5106364;28;20039;-56
2022/06/30 01:32:21;;;;;;;3.25;1.30;;;13.70;99.90;;;;;;5094700;28;20044;-55
2022/06/30 01:34:49;;;;;;;8.25;1.40;;;13.70;99.90;;;;;;5103333;28;20043;-54
2022/06/30 01:37:16;;;;;;;4.82;1.25;;;13.60;99.90;;;;;;5092603;28;20488;-55
2022/06/30 01:39:44;;;;;;;4.45;1.67;;;13.60;99.90;;;;;;5107842;28;20058;-54
2022/06/30 01:42:12;;;;;;;2.38;1.35;;;13.60;99.90;;;;;;5111368;28;20067;-54
2022/06/30 01:44:40;;;;;;;3.90;1.52;;;13.50;99.90;;;;;;5111836;28;20491;-55
2022/06/30 01:47:09;;;;;;;7.10;1.52;;;13.50;99.90;;;;;;5095858;28;20051;-54
2022/06/30 01:49:37;;;;;;;6.95;2.08;;;13.50;99.90;;;;;;5099710;28;20042;-54
2022/06/30 01:52:05;;;;;;;4.50;1.85;;;13.40;99.90;;;;;;5089960;28;20048;-54
2022/06/30 01:54:32;;;;;;;1.60;1.50;;;13.40;99.90;;;;;;5091076;28;20052;-55
2022/06/30 01:57:00;;;;;;;3.40;1.80;;;13.40;99.90;;;;;;5091573;28;20040;-55
2022/06/30 01:59:27;;;;;;;5.72;1.63;;;13.30;99.90;;;;;;5095133;28;20052;-55
2022/06/30 02:01:55;;;;;;;1.60;1.42;;;13.30;99.90;;;;;;5094813;28;20059;-57
2022/06/30 02:07:09;;;;;;;3.03;1.73;;;13.30;99.90;;;;;;5097396;28;20495;-55
2022/06/30 02:09:36;;;;;;;5.20;1.55;;;13.30;99.90;;;;;;5095578;28;20040;-56
2022/06/30 02:14:51;;;;;;;8.13;1.92;;;13.20;99.90;;;;;;5115331;28;20525;-55
2022/06/30 02:17:18;;;;;;;4.15;1.55;;;13.30;99.90;;;;;;5096149;28;20044;-56
2022/06/30 02:19:46;;;;;;;3.08;1.63;;;13.30;99.90;;;;;;5095253;28;20044;-57
2022/06/30 02:22:13;;;;;;;7.72;3.67;;;13.30;99.90;;;;;;5097345;28;20058;-58
2022/06/30 02:24:41;;;;;;;1.95;1.35;;;13.30;99.90;;;;;;5115584;28;20540;-58
2022/06/30 02:27:09;;;;;;;3.90;1.95;;;13.40;99.90;;;;;;5096560;28;20055;-56
2022/06/30 02:29:36;;;;;;;7.63;2.33;;;13.40;99.90;;;;;;5095109;28;20059;-55
2022/06/30 02:32:04;;;;;;;6.25;3.35;;;13.40;99.90;;;;;;5094432;28;20048;-55
2022/06/30 02:34:32;;;;;;;3.47;1.67;;;13.50;99.90;;;;;;5093858;28;20036;-58
2022/06/30 02:37:00;;;;;;;5.13;2.00;;;13.50;99.90;;;;;;5097066;28;20121;-56
2022/06/30 02:39:27;;;;;;;5.25;1.98;;;13.50;99.90;;;;;;5113809;28;20043;-57
2022/06/30 02:41:55;;;;;;;2.92;1.55;;;13.60;99.90;;;;;;5113132;28;20047;-55
2022/06/30 02:44:22;;;;;;;3.58;1.98;;;13.60;99.90;;;;;;5115320;28;20043;-56
2022/06/30 02:46:51;;;;;;;3.72;1.60;;;13.60;99.90;;;;;;5113096;28;20490;-56
2022/06/30 02:49:19;;;;;;;3.53;1.55;;;13.60;99.90;;;;;;5115230;28;20039;-57
2022/06/30 02:51:47;;;;;;;8.95;2.05;;;13.60;99.90;;;;;;5099064;28;20048;-56
2022/06/30 02:54:15;;;;;;;5.60;1.50;;;13.60;99.90;;;;;;5098030;28;20055;-57
2022/06/30 02:56:44;;;;;;;2.58;1.70;;;13.60;99.90;;;;;;5100276;28;20051;-57
2022/06/30 02:59:11;;;;;;;6.22;1.80;;;13.60;99.90;;;;;;5094577;28;20044;-57
2022/06/30 03:01:39;;;;;;;4.72;1.95;;;13.60;99.90;;;;;;5092380;28;20051;-56
2022/06/30 03:04:07;;;;;;;5.05;1.88;;;13.60;99.90;;;;;;5094398;28;20126;-56
2022/06/30 03:06:35;;;;;;;5.60;1.48;;;13.60;99.90;;;;;;5093661;28;20423;-56
2022/06/30 03:09:03;;;;;;;6.18;1.50;;;13.60;99.90;;;;;;5096631;28;20035;-57
2022/06/30 03:11:31;;;;;;;7.07;2.00;;;13.60;99.90;;;;;;5109847;28;20043;-56
2022/06/30 03:14:18;;;;;;;6.53;1.80;;;13.60;99.90;;;;;;5114519;28;20479;-56
2022/06/30 03:16:48;;;;;;;6.82;1.80;;;13.60;99.90;;;;;;5113752;27;20448;-56
2022/06/30 03:19:16;;;;;;;3.05;1.95;;;13.60;99.90;;;;;;5114663;28;20054;-56
2022/06/30 03:21:43;;;;;;;6.90;1.80;;;13.60;99.90;;;;;;5113441;28;20493;-55
2022/06/30 03:24:11;;;;;;;4.18;2.10;;;13.60;99.90;;;;;;5114458;28;20054;-56
2022/06/30 03:26:38;;;;;;;5.75;2.20;;;13.60;99.90;;;;;;5102300;28;20051;-56
2022/06/30 03:29:06;;;;;;;4.70;1.60;;;13.60;99.90;;;;;;5109278;28;20055;-56
2022/06/30 03:31:34;;;;;;;6.57;1.80;;;13.60;99.90;;;;;;5100939;28;20040;-57
2022/06/30 03:34:02;;;;;;;5.13;1.50;;;13.60;99.90;;;;;;5075828;28;20052;-56
2022/06/30 03:36:29;;;;;;;4.65;1.52;;;13.60;99.90;;;;;;5101749;28;20047;-55
2022/06/30 03:38:57;;;;;;;3.47;1.90;;;13.50;99.90;;;;;;5114013;28;20043;-55
2022/06/30 03:41:24;;;;;;;4.20;1.73;;;13.50;99.90;;;;;;5113349;28;20055;-55
2022/06/30 03:43:52;;;;;;;6.85;2.10;;;13.50;99.90;;;;;;5113349;28;20365;-55
2022/06/30 03:46:20;;;;;;;5.10;1.75;;;13.50;99.90;;;;;;5113165;28;20044;-57
2022/06/30 03:48:47;;;;;;;5.95;1.63;;;13.40;99.90;;;;;;5113900;28;20051;-59
2022/06/30 03:51:15;;;;;;;3.20;1.50;;;13.40;99.90;;;;;;5112118;28;20410;-55
2022/06/30 03:53:42;;;;;;;3.60;1.52;;;13.40;99.90;;;;;;5113877;28;20058;-56
2022/06/30 03:56:10;;;;;;;3.80;1.25;;;13.40;99.90;;;;;;5113097;28;20047;-57
2022/06/30 03:58:37;;;;;;;3.90;1.40;;;13.30;99.90;;;;;;5113085;28;20044;-55
2022/06/30 04:01:05;;;;;;;5.20;1.20;;;13.30;99.90;;;;;;5104219;28;20415;-55
2022/06/30 04:03:33;;;;;;;3.88;1.00;;;13.30;99.90;;;;;;5093227;28;20068;-57
2022/06/30 04:06:00;;;;;;;2.72;1.23;;;13.30;99.90;;;;;;5100034;28;20043;-56
2022/06/30 04:08:28;;;;;;;3.78;1.00;;;13.30;99.90;;;;;;5113780;28;20051;-55
2022/06/30 04:10:55;;;;;;;3.30;1.58;;;13.20;99.90;;;;;;5112681;28;20054;-55
2022/06/30 04:13:23;;;;;;;2.88;1.35;;;13.20;99.90;;;;;;5111848;28;20052;-55
2022/06/30 04:15:50;;;;;;;5.35;2.13;;;13.20;99.90;;;;;;5105393;28;20048;-56
2022/06/30 04:18:18;;;;;;;3.85;1.30;;;13.20;99.90;;;;;;5094482;28;20051;-55
2022/06/30 04:20:46;;;;;;;5.88;1.30;;;13.20;99.90;;;;;;5106122;28;20040;-55
2022/06/30 04:23:13;;;;;;;2.72;1.50;;;13.10;99.90;;;;;;5092844;28;20052;-55
2022/06/30 04:25:41;;;;;;;4.10;1.90;;;13.10;99.90;;;;;;5092009;28;20048;-55
2022/06/30 04:28:09;;;;;;;3.85;2.15;;;13.10;99.90;;;;;;5093097;28;20487;-55
2022/06/30 04:33:23;;;;;;;3.90;2.38;;;13.10;99.90;;;;;;5095189;28;20050;-57
2022/06/30 04:35:50;;;;;;;4.10;2.08;;;13.10;99.90;;;;;;5105168;28;20483;-58
2022/06/30 04:38:18;;;;;;;5.40;2.22;;;13.20;99.90;;;;;;5093204;28;20051;-58
2022/06/30 04:43:31;;;;;;;5.28;1.75;;;13.30;99.90;;;;;;5092427;28;20061;-57
2022/06/30 04:45:59;;;;;;;2.90;2.08;;;13.30;99.90;;;;;;5090306;28;20050;-56
2022/06/30 04:48:27;;;;;;;7.40;2.50;;;13.30;99.90;;;;;;5090545;28;20110;-56
2022/06/30 04:50:54;;;;;;;4.57;1.90;;;13.30;99.90;;;;;;5088341;28;20044;-58
2022/06/30 04:53:22;;;;;;;2.08;1.90;;;13.40;99.90;;;;;;5089475;28;20036;-57
2022/06/30 04:55:49;;;;;;;4.72;1.98;;;13.40;99.90;;;;;;5088023;28;20515;-57
2022/06/30 04:58:17;;;;;;;4.22;1.67;;;13.50;99.90;;;;;;5088831;28;20048;-58
2022/06/30 05:00:45;;;;;;;4.28;1.90;;;13.50;99.90;;;;;;5089967;28;20059;-58
2022/06/30 05:03:12;;;;;;;3.17;2.20;;;13.50;99.90;;;;;;5094184;28;20051;-57
2022/06/30 05:05:40;;;;;;;4.15;1.67;;;13.50;99.90;;;;;;5091669;28;20387;-57
2022/06/30 05:08:08;;;;;;;5.95;2.10;;;13.60;99.90;;;;;;5092667;28;20126;-58
2022/06/30 05:10:36;;;;;;;2.90;1.75;;;13.60;99.90;;;;;;5104885;28;20398;-57
2022/06/30 05:13:04;;;;;;;3.85;1.65;;;13.60;99.90;;;;;;5090051;28;20040;-57
2022/06/30 05:15:32;;;;;;;5.35;1.85;;;13.70;99.90;;;;;;5091517;28;20062;-57
2022/06/30 05:18:00;;;;;;;4.85;2.65;;;13.70;99.90;;;;;;5101029;28;20040;-58
2022/06/30 05:20:27;;;;;;;6.53;1.63;;;13.70;99.90;;;;;;5086802;28;20059;-57
2022/06/30 05:22:55;;;;;;;6.13;1.33;;;13.70;99.90;;;;;;5090102;28;20078;-56
2022/06/30 05:28:09;;;;;;;2.65;1.10;;;13.70;99.90;;;;;;5109606;28;20050;-57
2022/06/30 05:30:37;;;;;;;6.57;1.40;;;13.80;99.90;;;;;;5107688;28;20495;-56
2022/06/30 05:33:05;;;;;;;4.38;1.50;;;13.80;99.90;;;;;;5100510;28;20059;-58
2022/06/30 05:35:33;;;;;;;6.53;2.13;;;13.80;99.90;;;;;;5086137;28;20070;-58
2022/06/30 05:38:00;;;;;;;8.77;1.95;;;13.90;99.90;;;;;;5089899;28;20081;-56
2022/06/30 05:40:29;;;;;;;5.45;1.70;;;13.90;99.90;;;;;;5095000;28;20058;-57
2022/06/30 05:42:56;;;;;;;5.03;1.70;;;14.00;99.90;;;;;;5106606;28;20546;-55
2022/06/30 05:45:24;;;;;;;5.32;1.38;;;14.00;99.90;;;;;;5106597;28;20361;-55
2022/06/30 05:47:52;;;;;;;6.03;1.67;;;14.00;99.90;;;;;;5104227;28;20047;-56
2022/06/30 05:50:21;;;;;;;5.68;1.42;;;14.10;99.90;;;;;;5103970;28;20050;-58
2022/06/30 05:52:52;;;;;;;6.88;2.22;;;14.10;99.90;;;;;;5089250;28;20040;-58
2022/06/30 05:55:19;;;;;;;3.70;1.58;;;14.10;99.90;;;;;;5090560;28;20056;-58
2022/06/30 05:57:53;;;;;;;4.45;2.05;;;14.20;99.90;;;;;;5091162;28;20059;-58
2022/06/30 06:00:23;;;;;;;4.38;1.40;;;14.20;99.90;;;;;;5105262;28;20055;-60
2022/06/30 06:02:51;;;;;;;3.90;1.67;;;14.30;99.90;;;;;;5104579;28;20048;-59
2022/06/30 06:05:22;;;;;;;5.15;1.70;;;14.40;99.90;;;;;;5086530;28;20210;-60
2022/06/30 06:07:51;;;;;;;3.70;1.45;;;14.30;99.90;;;;;;5089126;28;20048;-60
2022/06/30 06:10:19;;;;;;;7.82;1.65;;;14.40;99.90;;;;;;5091956;28;20047;-58
2022/06/30 06:12:47;;;;;;;4.20;1.27;;;14.40;99.90;;;;;;5088899;28;20052;-58
2022/06/30 06:15:15;;;;;;;4.82;1.70;;;14.50;99.90;;;;;;5105022;28;20831;-57
2022/06/30 06:17:45;;;;;;;7.60;1.92;;;14.50;99.90;;;;;;5096726;28;20509;-58
2022/06/30 06:20:15;;;;;;;5.95;1.58;;;14.50;99.90;;;;;;5108333;28;20044;-58
2022/06/30 06:22:43;;;;;;;;;;;14.50;99.90;;;;;;5090195;28;20066;-56
2022/06/30 06:25:12;;;;;;;3.70;1.48;;;14.60;99.90;;;;;;5089287;28;19920;-56
2022/06/30 06:27:40;;;;;;;8.82;1.92;;;14.60;99.90;;;;;;5088823;28;20043;-59
2022/06/30 06:30:10;;;;;;;4.63;1.90;;;14.70;99.90;;;;;;5093189;28;20047;-57
2022/06/30 06:32:37;;;;;;;7.85;2.47;;;14.60;99.90;;;;;;5091451;28;20039;-57
2022/06/30 06:35:06;;;;;;;6.07;1.58;;;14.60;99.90;;;;;;5100538;28;20044;-57
2022/06/30 06:37:38;;;;;;;6.18;2.47;;;14.60;99.90;;;;;;5089918;28;20048;-57
2022/06/30 06:40:06;;;;;;;7.90;1.58;;;14.60;99.90;;;;;;5086669;28;20056;-58
2022/06/30 06:42:34;;;;;;;7.38;1.73;;;14.70;99.90;;;;;;5089238;28;20395;-57
2022/06/30 06:45:10;;;;;;;4.43;1.73;;;14.80;99.90;;;;;;5093184;28;20036;-57
2022/06/30 06:47:38;;;;;;;4.85;1.52;;;14.80;99.90;;;;;;5093097;28;20074;-58
2022/06/30 06:50:09;;;;;;;5.50;1.52;;;14.70;99.90;;;;;;5106058;28;20043;-57
2022/06/30 06:52:37;;;;;;;5.18;1.70;;;14.70;99.90;;;;;;5093369;28;20051;-56
2022/06/30 06:55:05;;;;;;;5.30;1.90;;;14.70;99.90;;;;;;5093392;28;20044;-56
2022/06/30 06:57:38;;;;;;;2.60;1.25;;;14.70;99.90;;;;;;5093320;28;20073;-56
2022/06/30 07:00:07;;;;;;;5.75;1.67;;;14.60;99.90;;;;;;5099519;28;20395;-56
2022/06/30 07:02:35;;;;;;;5.45;1.60;;;14.60;99.90;;;;;;5108602;28;20055;-58
2022/06/30 07:05:03;;;;;;;4.88;1.58;;;14.60;99.90;;;;;;5091774;28;20044;-56
2022/06/30 07:07:35;;;;;;;7.40;1.75;;;14.60;99.90;;;;;;5092963;28;20036;-57
2022/06/30 07:10:05;;;;;;;11.30;1.73;;;14.50;99.90;;;;;;5091565;28;20051;-55
2022/06/30 07:12:34;;;;;;;5.05;1.83;;;14.50;99.90;;;;;;5109893;28;20048;-57
2022/06/30 07:15:02;;;;;;;4.40;1.80;;;14.50;99.90;;;;;;5109848;28;20043;-58
2022/06/30 07:17:37;;;;;;;6.00;1.90;;;14.60;99.90;;;;;;5109225;28;20047;-57
2022/06/30 07:20:05;;;;;;;6.57;3.25;;;14.70;99.90;;;;;;5109376;28;20055;-56
2022/06/30 07:22:34;;;;;;;4.15;2.15;;;14.70;99.90;;;;;;5104497;28;20035;-56
2022/06/30 07:25:05;;;;;;;3.60;1.60;;;14.80;99.90;;;;;;5107334;28;20483;-57
2022/06/30 07:27:34;;;;;;;4.30;1.52;;;14.90;99.90;;;;;;5107576;28;20036;-57
2022/06/30 07:30:02;;;;;;;2.53;1.02;;;15.00;99.90;;;;;;5110231;28;20044;-56
2022/06/30 07:32:30;;;;;;;2.33;1.25;;;15.10;99.90;;;;;;5112733;28;20505;-57
2022/06/30 07:34:57;;;;;;;4.63;0.80;;;15.30;99.90;;;;;;5112786;28;20051;-58
2022/06/30 07:37:25;;;;;;;4.00;0.70;;;15.40;99.90;;;;;;5100571;28;20032;-58
2022/06/30 07:39:52;;;;;;;5.38;0.70;;;15.50;99.90;;;;;;5101969;28;20055;-58
2022/06/30 07:42:20;;;;;;;4.88;0.98;;;15.60;99.90;;;;;;5111352;28;20040;-59
2022/06/30 07:44:47;;;;;;;2.10;0.80;;;15.60;99.90;;;;;;5111818;28;20051;-58
2022/06/30 07:47:15;;;;;;;3.80;0.70;;;15.50;99.90;;;;;;5111712;28;20047;-58
2022/06/30 07:49:43;;;;;;;5.82;0.93;;;15.50;99.90;;;;;;5092735;28;20051;-58
2022/06/30 07:52:10;;;;;;;7.80;0.95;;;15.50;99.90;;;;;;5094360;28;20056;-58
2022/06/30 07:54:43;;;;;;;5.15;0.80;;;15.70;99.90;;;;;;5091256;28;20043;-58
2022/06/30 07:57:12;;;;;;;1.85;0.57;;;15.80;99.90;;;;;;5099716;28;20043;-58
2022/06/30 07:59:58;;;;;;;2.45;0.57;;;15.90;99.90;;;;;;5091830;28;20055;-58
2022/06/30 08:02:25;;;;;;;3.58;0.68;;;16.00;99.90;;;;;;5091688;28;20055;-58
2022/06/30 08:04:53;;;;;;;2.63;0.57;;;16.10;99.90;;;;;;5091682;28;20047;-58
2022/06/30 08:07:21;;;;;;;4.75;0.73;;;16.10;99.90;;;;;;5091560;28;20049;-57
2022/06/30 08:09:49;;;;;;;5.28;0.77;;;16.00;99.90;;;;;;5091714;28;20407;-57
2022/06/30 08:12:16;;;;;;;1.80;0.70;;;16.10;99.90;;;;;;5094955;28;20043;-58
2022/06/30 08:14:44;;;;;;;3.85;0.90;;;16.00;99.90;;;;;;5107607;28;20044;-58
2022/06/30 08:17:12;;;;;;;8.18;1.17;;;16.00;99.90;;;;;;5108190;28;20043;-57
2022/06/30 08:19:41;;;;;;;6.20;1.85;;;15.90;99.90;;;;;;5105144;28;20054;-57
2022/06/30 08:22:08;;;;;;;4.10;1.15;;;15.80;99.90;;;;;;5106782;28;20059;-58
2022/06/30 08:24:38;;;;;;;5.65;1.00;;;15.80;99.90;;;;;;5108264;28;20535;-57
2022/06/30 08:27:06;;;;;;;4.97;1.23;;;15.90;99.90;;;;;;5089219;28;20391;-57
2022/06/30 08:29:33;;;;;;;3.03;1.58;;;16.00;99.90;;;;;;5087718;28;20047;-58
2022/06/30 08:32:02;;;;;;;3.08;1.33;;;16.10;99.90;;;;;;5090207;28;20047;-57
2022/06/30 08:34:30;;;;;;;3.40;1.70;;;16.20;99.90;;;;;;5098242;28;20036;-59
2022/06/30 08:36:58;;;;;;;4.47;1.88;;;16.30;99.90;;;;;;5095096;28;20495;-56
2022/06/30 08:42:13;;;;;;;5.03;1.63;;;16.40;99.90;;;;;;5098521;28;20046;-58
2022/06/30 08:44:42;;;;;;;2.00;1.35;;;16.50;99.90;;;;;;5104586;28;20063;-58
2022/06/30 08:47:12;;;;;;;7.53;1.10;;;16.50;99.90;;;;;;5098619;28;20040;-56
2022/06/30 08:49:39;;;;;;;3.00;0.93;;;16.50;99.90;;;;;;5087942;28;20048;-57
2022/06/30 08:52:09;;;;;;;2.88;1.77;;;16.50;99.90;;;;;;5111263;28;20055;-58
2022/06/30 08:54:39;;;;;;;2.65;0.90;;;16.50;99.90;;;;;;5106503;28;20051;-58
2022/06/30 08:57:08;;;;;;;3.15;1.20;;;16.50;99.90;;;;;;5091498;28;20043;-57
2022/06/30 08:59:37;;;;;;;2.13;1.13;;;16.50;99.90;;;;;;5090721;28;20059;-58
2022/06/30 09:02:05;;;;;;;3.42;1.10;;;16.50;99.90;;;;;;5089601;28;20300;-55
2022/06/30 09:04:33;;;;;;;4.97;1.52;;;16.50;99.90;;;;;;5099754;28;20039;-57
2022/06/30 09:07:01;;;;;;;3.08;0.70;;;16.50;99.90;;;;;;5091814;28;20062;-57
2022/06/30 09:09:29;;;;;;;3.10;0.93;;;16.50;99.90;;;;;;5074898;28;20055;-56
2022/06/30 09:11:57;;;;;;;6.95;0.93;;;16.50;99.90;;;;;;5090952;28;20044;-56
2022/06/30 09:14:32;;;;;;;3.22;0.50;;;16.60;99.90;;;;;;5086875;28;20051;-56
2022/06/30 09:17:01;;;;;;;4.00;0.98;;;16.60;99.90;;;;;;5092113;28;20051;-56
2022/06/30 09:19:30;;;;;;;2.38;0.63;;;16.60;99.90;;;;;;5100822;28;20051;-56
2022/06/30 09:22:16;;;;;;;5.75;0.80;;;16.70;99.90;;;;;;5103010;28;20055;-57
2022/06/30 09:24:44;;;;;;;2.58;0.55;;;16.80;99.90;;;;;;5106608;27;20044;-57
2022/06/30 09:27:15;;;;;;;2.25;0.55;;;16.90;99.90;;;;;;5093196;28;20044;-56
2022/06/30 09:29:53;;;;;;;1.65;0.77;;;17.10;99.90;;;;;;5089912;28;20063;-56
2022/06/30 09:32:47;;;;;;;3.90;0.57;;;17.20;99.90;;;;;;5094936;28;20395;-57
2022/06/30 09:35:16;;;;;;;1.02;0.50;;;17.40;99.90;;;;;;5090407;28;20471;-58
2022/06/30 09:37:44;;;;;;;2.75;0.60;;;17.50;99.90;;;;;;5090187;28;20055;-58
2022/06/30 09:40:12;;;;;;;2.08;0.80;;;17.60;99.90;;;;;;5090306;28;20043;-59
2022/06/30 09:42:42;;;;;;;1.92;0.47;;;17.90;99.90;;;;;;5089491;28;20052;-58
2022/06/30 09:45:42;;;;;;;3.47;0.70;;;18.10;99.90;;;;;;5092470;28;20039;-58
2022/06/30 09:48:11;;;;;;;2.03;0.65;;;18.30;99.90;;;;;;5101619;28;20051;-59
2022/06/30 09:50:39;;;;;;;3.75;0.68;;;18.50;99.90;;;;;;5096860;28;20036;-58
2022/06/30 09:53:14;;;;;;;2.60;0.38;;;18.50;99.90;;;;;;5090570;28;20658;-59
2022/06/30 09:55:45;;;;;;;3.45;0.60;;;18.50;99.90;;;;;;5094608;28;20055;-59
2022/06/30 09:58:34;;;;;;;1.63;0.50;;;18.40;99.90;;;;;;5107448;28;20032;-59
2022/06/30 10:01:03;;;;;;;0.85;0.65;;;18.30;99.90;;;;;;5101779;28;20044;-58
2022/06/30 10:03:47;;;;;;;0.80;0.40;;;18.20;99.90;;;;;;5110442;28;20035;-60
2022/06/30 10:06:17;;;;;;;3.47;0.85;;;18.00;99.90;;;;;;5110302;28;20491;-58
2022/06/30 10:08:45;;;;;;;1.17;0.43;;;17.90;99.90;;;;;;5097426;28;20044;-57
2022/06/30 10:11:13;;;;;;;2.85;0.40;;;17.90;99.90;;;;;;5088336;28;20052;-57
2022/06/30 10:13:46;;;;;;;1.83;0.35;;;17.90;99.90;;;;;;5092266;28;20043;-56
2022/06/30 10:16:16;;;;;;;4.53;0.60;;;17.90;99.90;;;;;;5101524;28;20483;-57
2022/06/30 10:18:44;;;;;;;2.67;0.30;;;18.00;99.90;;;;;;5098325;28;20036;-56
2022/06/30 10:21:12;;;;;;;1.33;0.63;;;18.00;99.90;;;;;;5094371;28;20052;-56
2022/06/30 10:23:41;;;;;;;1.27;0.43;;;18.10;99.90;;;;;;5097709;28;20040;-55
2022/06/30 10:27:12;;;;;;;1.42;0.60;;;18.10;99.90;;;;;;5093124;28;20138;-55
2022/06/30 10:28:56;;;;;;;1.80;0.40;;;18.20;99.90;;;;;;5094744;28;20036;-56
2022/06/30 10:31:33;;;;;;;2.47;0.70;;;18.20;99.90;;;;;;5095727;28;20047;-58
2022/06/30 10:34:09;;;;;;;1.42;0.57;;;18.20;99.90;;;;;;5093825;28;20071;-56
2022/06/30 10:36:49;;;;;;;1.95;0.68;;;18.20;99.90;;;;;;5093325;28;20487;-58
2022/06/30 10:39:50;;;;;;;0.98;0.40;;;18.20;99.90;;;;;;5092728;28;20040;-58
2022/06/30 10:42:44;;;;;;;2.33;0.35;;;18.30;99.90;;;;;;5093508;28;20051;-58
2022/06/30 10:45:30;;;;;;;6.90;0.70;;;18.30;99.90;;;;;;5109008;28;20058;-59
2022/06/30 10:48:02;;;;;;;0.63;0.32;;;18.30;99.20;;;;;;5109710;28;20048;-57
2022/06/30 10:50:42;;;;;;;1.23;0.40;;;18.30;99.50;;;;;;5109084;28;20529;-58
2022/06/30 10:53:13;;;;;;;6.05;0.57;;;18.30;99.90;;;;;;5113488;28;20047;-58
2022/06/30 10:55:47;;;;;;;1.10;0.60;;;18.20;99.90;;;;;;5112885;28;20066;-57
2022/06/30 10:58:15;;;;;;;4.55;0.70;;;18.10;99.90;;;;;;5105233;28;20396;-57
2022/06/30 11:00:59;;;;;;;3.50;0.60;;;18.10;99.90;;;;;;5091724;28;20059;-55
2022/06/30 11:03:33;;;;;;;4.03;0.73;;;18.20;99.90;;;;;;5089949;28;20044;-55
2022/06/30 11:06:05;;;;;;;3.70;0.70;;;18.20;99.90;;;;;;5106248;28;20517;-55
2022/06/30 11:08:36;;;;;;;5.07;0.50;;;18.30;99.90;;;;;;5101243;28;20423;-55
2022/06/30 11:11:22;;;;;;;2.25;0.57;;;18.50;99.90;;;;;;5103409;28;20048;-55
2022/06/30 11:14:01;;;;;;;2.60;0.55;;;18.80;99.40;;;;;;5112974;28;20048;-55
2022/06/30 11:16:30;;;;;;;2.45;0.57;;;19.10;99.70;;;;;;5106638;28;20041;-57
2022/06/30 11:18:59;;;;;;;2.97;0.95;;;19.40;99.50;;;;;;5092507;28;20070;-58
2022/06/30 11:21:31;;;;;;;2.72;0.68;;;19.60;98.90;;;;;;5092700;28;20047;-58
2022/06/30 11:24:00;;;;;;;3.35;0.70;;;19.80;98.40;;;;;;5105147;28;20600;-60
2022/06/30 11:29:17;;;;;;;2.47;0.82;;;20.10;97.80;;;;;;5100624;28;20047;-58
2022/06/30 11:31:46;;;;;;;3.83;0.60;;;20.30;98.00;;;;;;5099002;28;20050;-57
2022/06/30 11:34:21;;;;;;;4.93;0.90;;;20.40;97.70;;;;;;5104452;28;20044;-60
2022/06/30 11:36:50;;;;;;;2.28;0.50;;;20.40;96.60;;;;;;5090455;28;20054;-58
2022/06/30 11:39:20;;;;;;;3.30;0.60;;;20.20;96.10;;;;;;5107190;28;20044;-58
2022/06/30 11:42:02;;;;;;;7.03;0.82;;;20.10;96.30;;;;;;5106028;28;20039;-58
2022/06/30 11:44:35;;;;;;;2.22;0.70;;;20.10;96.40;;;;;;5104870;28;20060;-58
2022/06/30 11:47:04;;;;;;;4.95;0.88;;;20.20;96.90;;;;;;5103574;28;20054;-56
2022/06/30 11:49:47;;;;;;;1.33;0.60;;;20.50;95.80;;;;;;5109329;27;20063;-56
2022/06/30 11:52:21;;;;;;;3.08;0.70;;;20.80;96.00;;;;;;5100888;27;20070;-56
2022/06/30 11:54:53;;;;;;;3.88;0.60;;;21.10;95.50;;;;;;5095132;28;20052;-57
2022/06/30 11:57:23;;;;;;;3.28;0.60;;;21.40;93.80;;;;;;5092566;28;20050;-56
2022/06/30 12:00:02;;;;;;;3.03;0.70;;;21.50;94.40;;;;;;5099672;28;20051;-57
2022/06/30 12:02:35;;;;;;;1.80;0.80;;;21.70;93.90;;;;;;5098081;28;20063;-58
2022/06/30 12:05:04;;;;;;;;;;;21.70;93.20;;;;;;5106705;28;20376;-58
2022/06/30 12:07:33;;;;;;;2.05;0.65;;;21.60;92.40;;;;;;5091586;28;20307;-58
2022/06/30 12:10:03;;;;;;;;;;;21.30;92.60;;;;;;5100151;28;20052;-57
2022/06/30 12:12:33;;;;;;;2.40;1.25;;;21.10;92.60;;;;;;5105784;28;19923;-58
2022/06/30 12:15:14;;;;;;;2.80;0.60;;;20.90;92.40;;;;;;5105108;28;20079;-57
2022/06/30 12:17:44;;;;;;;1.92;0.50;;;20.70;93.10;;;;;;5094881;28;20044;-56
2022/06/30 12:20:15;;;;;;;1.95;0.65;;;20.80;93.80;;;;;;5095144;28;20041;-56
2022/06/30 12:22:48;;;;;;;1.52;0.40;;;20.90;93.50;;;;;;5091925;27;20056;-56
2022/06/30 12:25:17;;;;;;;6.35;0.90;;;21.20;93.80;;;;;;5093801;28;20043;-57
2022/06/30 12:27:48;;;;;;;3.47;0.98;;;21.10;92.80;;;;;;5091483;28;20391;-57
2022/06/30 12:30:18;;;;;;;1.80;0.80;;;20.80;93.30;;;;;;5091899;28;20044;-58
2022/06/30 12:32:56;;;;;;;4.45;0.82;;;20.40;94.00;;;;;;5091923;28;20419;-58
2022/06/30 12:35:32;;;;;;;2.33;0.50;;;19.90;95.60;;;;;;5091900;28;20048;-58
2022/06/30 12:38:15;;;;;;;1.95;0.68;;;19.60;96.40;;;;;;5091224;28;20040;-58
2022/06/30 12:40:43;;;;;;;0.93;0.55;;;19.30;97.40;;;;;;5091646;28;20043;-58
2022/06/30 12:43:19;;;;;;;2.67;0.68;;;19.10;97.70;;;;;;5091215;28;20051;-59
2022/06/30 12:45:55;;;;;;;4.43;0.93;;;18.90;98.20;;;;;;5107422;28;20047;-57
2022/06/30 12:48:44;;;;;;;2.00;0.70;;;18.80;98.70;;;;;;5109985;28;20050;-57
2022/06/30 12:51:14;;;;;;;3.72;0.82;;;18.70;99.20;;;;;;5101844;28;20047;-57
2022/06/30 12:53:45;;;;;;;2.83;0.85;;;18.70;99.60;;;;;;5109182;28;20479;-57
2022/06/30 12:56:19;;;;;;;1.63;0.60;;;18.80;99.60;;;;;;5111301;28;20043;-58
2022/06/30 12:59:01;;;;;;;2.88;0.43;;;19.00;99.70;;;;;;5095214;28;20050;-58
2022/06/30 13:01:39;;;;;;;3.40;0.43;;;19.20;98.40;;;;;;5086332;28;20052;-57
2022/06/30 13:04:09;;;;;;;0.88;0.65;;;19.20;95.20;;;;;;5087764;28;20048;-58
2022/06/30 13:06:39;;;;;;;0.50;0.30;;;19.20;96.00;;;;;;5087126;28;20055;-58
2022/06/30 13:09:12;;;;;;;0.73;0.30;;;19.40;95.60;;;;;;5089633;28;20036;-56
2022/06/30 13:11:46;;;;;;;0.85;0.30;;;19.60;95.20;;;;;;5088704;28;20472;-56
2022/06/30 13:14:16;;;;;;;3.05;0.40;;;19.90;95.00;;;;;;5087176;28;20048;-57
2022/06/30 13:16:44;;;;;;;2.38;0.30;;;20.30;94.80;;;;;;5088738;28;20047;-57
2022/06/30 13:19:13;;;;;;;0.70;0.30;;;20.70;93.60;;;;;;5095808;28;20048;-57
2022/06/30 13:21:41;;;;;;;0.88;0.40;;;21.00;93.00;;;;;;5091304;28;20047;-57
2022/06/30 13:24:09;;;;;;;1.35;0.40;;;21.30;91.80;;;;;;5097001;28;20051;-57
2022/06/30 13:26:37;;;;;;;1.35;0.50;;;21.60;92.20;;;;;;5091288;28;20059;-57